Time;durP1;ratioP1;P1;durP2;ratioP2;P2;SDS_P1;SDS_P2;PMS_P1;PMS_P2;Temp;Humidity;BMP_temperature;BMP_pressure;BME280_temperature;BME280_humidity;BME280_pressure;Samples;Min_cycle;Max_cycle;Signal;HPM_P1;HPM_P2
2023/06/09 00:00:11;;;;;;;4.93;4.43;;;;;;;;;;5092682;28;21025;-58
2023/06/09 00:02:38;;;;;;;4.83;4.40;;;;;;;;;;5092679;28;20461;-57
2023/06/09 00:05:06;;;;;;;4.73;4.37;;;;;;;;;;5092767;28;20456;-57
2023/06/09 00:07:36;;;;;;;4.70;4.40;;;;;;;;;;5092444;28;20532;-59
2023/06/09 00:10:03;;;;;;;4.60;4.20;;;;;;;;;;5092812;28;20455;-58
2023/06/09 00:12:31;;;;;;;4.40;4.10;;;;;;;;;;5092465;28;21029;-59
2023/06/09 00:14:58;;;;;;;4.30;4.00;;;;;;;;;;5094072;28;20450;-58
2023/06/09 00:17:25;;;;;;;4.90;4.50;;;;;;;;;;5096417;28;20445;-58
2023/06/09 00:19:54;;;;;;;5.03;4.53;;;;;;;;;;5096382;28;20822;-58
2023/06/09 00:22:21;;;;;;;5.83;5.30;;;;;;;;;;5096554;28;20443;-58
2023/06/09 00:24:48;;;;;;;4.50;4.10;;;;;;;;;;5096477;28;20882;-58
2023/06/09 00:27:15;;;;;;;4.30;3.90;;;;;;;;;;5096268;28;20535;-58
2023/06/09 00:29:43;;;;;;;5.00;4.60;;;;;;;;;;5096287;28;20438;-57
2023/06/09 00:32:11;;;;;;;5.20;4.80;;;;;;;;;;5096103;28;20575;-57
2023/06/09 00:34:38;;;;;;;5.60;5.00;;;;;;;;;;5096039;28;20465;-58
2023/06/09 00:37:05;;;;;;;5.70;4.70;;;;;;;;;;5096182;28;20938;-58
2023/06/09 00:39:32;;;;;;;4.60;4.20;;;;;;;;;;5096141;28;20537;-58
2023/06/09 00:41:59;;;;;;;5.33;4.93;;;;;;;;;;5096103;28;20493;-58
2023/06/09 00:44:26;;;;;;;6.03;5.53;;;;;;;;;;5095932;28;20820;-57
2023/06/09 00:46:54;;;;;;;5.47;4.97;;;;;;;;;;5095795;28;20456;-58
2023/06/09 00:49:21;;;;;;;5.23;4.50;;;;;;;;;;5095705;28;20892;-57
2023/06/09 00:51:48;;;;;;;5.20;4.77;;;;;;;;;;5095846;28;20483;-58
2023/06/09 00:54:18;;;;;;;6.20;5.70;;;;;;;;;;5095820;28;20457;-58
2023/06/09 00:56:45;;;;;;;6.00;5.50;;;;;;;;;;5095365;28;20980;-58
2023/06/09 00:59:15;;;;;;;5.37;4.97;;;;;;;;;;5095697;28;20475;-58
2023/06/09 01:01:44;;;;;;;5.60;5.10;;;;;;;;;;5095471;28;20450;-59
2023/06/09 01:04:12;;;;;;;5.97;5.37;;;;;;;;;;5095701;28;20469;-58
2023/06/09 01:06:45;;;;;;;5.73;5.17;;;;;;;;;;5095502;28;20938;-58
2023/06/09 01:09:26;;;;;;;4.80;4.50;;;;;;;;;;5095529;28;20442;-58
2023/06/09 01:11:59;;;;;;;5.30;4.80;;;;;;;;;;5095428;28;20473;-58
2023/06/09 01:14:28;;;;;;;6.13;4.90;;;;;;;;;;5095243;28;20472;-58
2023/06/09 01:16:59;;;;;;;4.77;4.40;;;;;;;;;;5095362;28;20449;-59
2023/06/09 01:19:32;;;;;;;5.53;5.03;;;;;;;;;;5095305;28;20566;-58
2023/06/09 01:22:01;;;;;;;5.20;4.73;;;;;;;;;;5095235;28;20450;-58
2023/06/09 01:24:32;;;;;;;6.33;4.67;;;;;;;;;;5095109;28;20895;-58
2023/06/09 01:27:02;;;;;;;6.50;5.20;;;;;;;;;;5094320;28;20772;-58
2023/06/09 01:29:30;;;;;;;5.83;5.30;;;;;;;;;;5095173;28;20451;-58
2023/06/09 01:31:57;;;;;;;5.53;4.90;;;;;;;;;;5095007;28;20483;-58
2023/06/09 01:34:24;;;;;;;5.80;5.20;;;;;;;;;;5095002;28;20449;-58
2023/06/09 01:36:51;;;;;;;12.27;6.20;;;;;;;;;;5094853;28;20453;-58
2023/06/09 01:39:18;;;;;;;6.00;5.50;;;;;;;;;;5094794;28;20451;-58
2023/06/09 01:41:45;;;;;;;6.43;5.93;;;;;;;;;;5094675;28;21045;-58
2023/06/09 01:44:14;;;;;;;5.87;5.47;;;;;;;;;;5094912;28;20450;-58
2023/06/09 01:46:42;;;;;;;5.43;5.03;;;;;;;;;;5094700;28;20454;-58
2023/06/09 01:49:12;;;;;;;7.43;5.60;;;;;;;;;;5094717;28;20544;-58
2023/06/09 01:51:42;;;;;;;6.27;5.73;;;;;;;;;;5094671;28;20469;-59
2023/06/09 01:54:09;;;;;;;5.53;5.13;;;;;;;;;;5095001;28;20549;-58
2023/06/09 01:56:38;;;;;;;6.40;5.80;;;;;;;;;;5094265;28;20477;-58
2023/06/09 01:59:07;;;;;;;9.40;5.70;;;;;;;;;;5094603;28;20424;-57
2023/06/09 02:01:36;;;;;;;7.70;5.40;;;;;;;;;;5094511;28;20449;-58
2023/06/09 02:04:04;;;;;;;7.50;6.13;;;;;;;;;;5094351;28;20449;-58
2023/06/09 02:06:32;;;;;;;5.43;5.10;;;;;;;;;;5094169;28;20455;-58
2023/06/09 02:08:59;;;;;;;5.63;5.13;;;;;;;;;;5094380;28;20449;-58
2023/06/09 02:11:26;;;;;;;6.90;5.90;;;;;;;;;;5094136;28;20453;-58
2023/06/09 02:13:53;;;;;;;7.20;6.60;;;;;;;;;;5094157;28;20779;-58
2023/06/09 02:16:21;;;;;;;7.63;5.70;;;;;;;;;;5094046;28;20461;-58
2023/06/09 02:18:50;;;;;;;6.50;6.00;;;;;;;;;;5094072;28;20450;-59
2023/06/09 02:21:17;;;;;;;5.97;5.57;;;;;;;;;;5094146;28;20431;-58
2023/06/09 02:23:44;;;;;;;6.40;5.03;;;;;;;;;;5094129;28;20457;-59
2023/06/09 02:26:12;;;;;;;8.10;5.53;;;;;;;;;;5093939;28;20430;-58
2023/06/09 02:28:39;;;;;;;6.33;5.77;;;;;;;;;;5094388;28;20542;-57
2023/06/09 02:31:06;;;;;;;5.83;5.33;;;;;;;;;;5093869;28;20483;-57
2023/06/09 02:33:33;;;;;;;5.70;5.20;;;;;;;;;;5093679;28;20485;-58
2023/06/09 02:36:01;;;;;;;6.67;5.07;;;;;;;;;;5093907;28;20460;-59
2023/06/09 02:38:31;;;;;;;6.17;5.50;;;;;;;;;;5093884;28;20453;-58
2023/06/09 02:40:57;;;;;;;7.00;6.17;;;;;;;;;;5093857;28;20449;-58
2023/06/09 02:43:24;;;;;;;6.20;5.70;;;;;;;;;;5093656;28;20809;-58
2023/06/09 02:45:52;;;;;;;6.50;5.90;;;;;;;;;;5093850;28;20446;-58
2023/06/09 02:48:19;;;;;;;6.93;6.40;;;;;;;;;;5093427;28;20461;-57
2023/06/09 02:50:46;;;;;;;5.77;5.33;;;;;;;;;;5093625;28;20506;-57
2023/06/09 02:53:14;;;;;;;5.50;5.00;;;;;;;;;;5093437;28;20485;-57
2023/06/09 02:55:44;;;;;;;7.20;5.90;;;;;;;;;;5093370;28;20839;-58
2023/06/09 02:58:14;;;;;;;10.50;5.90;;;;;;;;;;5093640;28;20810;-58
2023/06/09 03:00:41;;;;;;;5.90;5.50;;;;;;;;;;5093275;28;20470;-58
2023/06/09 03:03:08;;;;;;;6.37;5.40;;;;;;;;;;5093664;28;20452;-59
2023/06/09 03:05:35;;;;;;;6.50;6.00;;;;;;;;;;5093361;28;20483;-58
2023/06/09 03:08:01;;;;;;;6.20;5.53;;;;;;;;;;5093263;28;20782;-58
2023/06/09 03:10:30;;;;;;;7.70;6.03;;;;;;;;;;5093237;28;20448;-58
2023/06/09 03:12:57;;;;;;;6.83;6.23;;;;;;;;;;5093183;28;20491;-58
2023/06/09 03:15:24;;;;;;;5.73;5.07;;;;;;;;;;5093322;28;20796;-58
2023/06/09 03:17:51;;;;;;;6.53;5.93;;;;;;;;;;5093205;28;20473;-58
2023/06/09 03:20:19;;;;;;;6.13;5.40;;;;;;;;;;5093134;28;20535;-58
2023/06/09 03:22:47;;;;;;;5.87;5.27;;;;;;;;;;5093063;28;20450;-58
2023/06/09 03:25:15;;;;;;;5.70;5.30;;;;;;;;;;5092922;28;20455;-58
2023/06/09 03:27:44;;;;;;;5.30;4.83;;;;;;;;;;5092791;28;20503;-58
2023/06/09 03:30:11;;;;;;;5.50;4.90;;;;;;;;;;5093089;28;20787;-58
2023/06/09 03:32:38;;;;;;;6.90;5.57;;;;;;;;;;5092761;28;20461;-58
2023/06/09 03:35:05;;;;;;;6.87;5.90;;;;;;;;;;5092799;28;20456;-58
2023/06/09 03:37:32;;;;;;;6.03;5.43;;;;;;;;;;5092711;28;20532;-57
2023/06/09 03:39:59;;;;;;;6.53;5.87;;;;;;;;;;5092713;28;20497;-59
2023/06/09 03:42:26;;;;;;;7.40;5.20;;;;;;;;;;5093002;28;20513;-58
2023/06/09 03:44:58;;;;;;;8.40;5.77;;;;;;;;;;5092830;28;20448;-58
2023/06/09 03:47:25;;;;;;;5.73;5.30;;;;;;;;;;5092626;28;20457;-57
2023/06/09 03:49:52;;;;;;;6.80;5.20;;;;;;;;;;5094355;28;20423;-58
2023/06/09 03:52:19;;;;;;;7.00;4.90;;;;;;;;;;5096759;28;20510;-59
2023/06/09 03:54:46;;;;;;;7.97;5.80;;;;;;;;;;5096493;28;20487;-58
2023/06/09 03:57:13;;;;;;;5.40;4.93;;;;;;;;;;5096884;28;20784;-58
2023/06/09 03:59:40;;;;;;;6.90;5.93;;;;;;;;;;5096826;28;20444;-58
2023/06/09 04:02:08;;;;;;;5.27;4.87;;;;;;;;;;5096886;28;20538;-58
2023/06/09 04:04:35;;;;;;;7.50;5.43;;;;;;;;;;5096726;28;20445;-58
2023/06/09 04:07:03;;;;;;;5.27;4.67;;;;;;;;;;5096718;28;20548;-57
2023/06/09 04:09:32;;;;;;;5.73;4.63;;;;;;;;;;5096938;28;20427;-58
2023/06/09 04:11:59;;;;;;;8.53;5.30;;;;;;;;;;5096787;28;20511;-58
2023/06/09 04:14:27;;;;;;;7.13;6.00;;;;;;;;;;5096789;28;20430;-58
2023/06/09 04:16:54;;;;;;;6.77;4.97;;;;;;;;;;5096684;28;20457;-58
2023/06/09 04:19:22;;;;;;;6.13;5.13;;;;;;;;;;5096574;28;20782;-58
2023/06/09 04:21:49;;;;;;;6.20;5.60;;;;;;;;;;5096481;28;20449;-60
2023/06/09 04:24:16;;;;;;;5.23;4.73;;;;;;;;;;5096503;28;20532;-58
2023/06/09 04:26:44;;;;;;;9.53;5.60;;;;;;;;;;5096528;28;20498;-58
2023/06/09 04:29:11;;;;;;;5.80;5.20;;;;;;;;;;5096416;28;20460;-59
2023/06/09 04:31:42;;;;;;;9.33;6.07;;;;;;;;;;5096180;28;20807;-57
2023/06/09 04:34:10;;;;;;;5.77;5.27;;;;;;;;;;5096021;28;20530;-59
2023/06/09 04:36:40;;;;;;;6.67;5.93;;;;;;;;;;5096098;28;20450;-58
2023/06/09 04:39:08;;;;;;;7.03;6.30;;;;;;;;;;5096782;28;20503;-57
2023/06/09 04:41:37;;;;;;;7.50;5.40;;;;;;;;;;5096170;28;20468;-58
2023/06/09 04:44:05;;;;;;;7.60;6.10;;;;;;;;;;5096138;28;20481;-56
2023/06/09 04:46:37;;;;;;;16.03;6.80;;;;;;;;;;5096204;28;20450;-58
2023/06/09 04:49:08;;;;;;;8.70;5.43;;;;;;;;;;5095972;28;20506;-59
2023/06/09 04:51:41;;;;;;;6.03;5.43;;;;;;;;;;5095893;28;20448;-57
2023/06/09 04:54:10;;;;;;;6.53;5.60;;;;;;;;;;5095991;28;20485;-58
2023/06/09 04:56:38;;;;;;;6.80;5.67;;;;;;;;;;5095612;28;20482;-60
2023/06/09 04:59:06;;;;;;;6.30;5.70;;;;;;;;;;5095987;28;20974;-58
2023/06/09 05:01:34;;;;;;;7.23;5.03;;;;;;;;;;5095658;28;20930;-58
2023/06/09 05:04:01;;;;;;;5.23;4.83;;;;;;;;;;5095980;28;20812;-58
2023/06/09 05:06:28;;;;;;;4.87;4.20;;;;;;;;;;5095742;28;20481;-58
2023/06/09 05:08:57;;;;;;;5.90;4.93;;;;;;;;;;5095676;28;20454;-59
2023/06/09 05:11:25;;;;;;;4.77;4.30;;;;;;;;;;5095618;28;20492;-58
2023/06/09 05:13:52;;;;;;;5.77;5.30;;;;;;;;;;5095458;28;20491;-59
2023/06/09 05:16:21;;;;;;;5.60;4.60;;;;;;;;;;5095678;28;20484;-60
2023/06/09 05:18:48;;;;;;;5.77;4.47;;;;;;;;;;5095281;28;20487;-57
2023/06/09 05:21:15;;;;;;;6.03;4.03;;;;;;;;;;5095508;28;20535;-59
2023/06/09 05:23:42;;;;;;;5.90;5.03;;;;;;;;;;5095252;28;20420;-60
2023/06/09 05:26:09;;;;;;;4.77;4.37;;;;;;;;;;5095189;28;20751;-59
2023/06/09 05:28:37;;;;;;;5.17;4.10;;;;;;;;;;5095321;28;20948;-59
2023/06/09 05:31:05;;;;;;;7.20;4.60;;;;;;;;;;5095301;28;20470;-58
2023/06/09 05:33:32;;;;;;;6.80;4.70;;;;;;;;;;5095109;28;20483;-58
2023/06/09 05:35:59;;;;;;;4.30;3.90;;;;;;;;;;5095115;28;20782;-58
2023/06/09 05:38:26;;;;;;;4.57;4.17;;;;;;;;;;5094839;28;20457;-58
2023/06/09 05:40:53;;;;;;;4.33;3.93;;;;;;;;;;5094922;28;20520;-58
2023/06/09 05:43:20;;;;;;;10.07;4.10;;;;;;;;;;5095224;28;21069;-59
2023/06/09 05:45:48;;;;;;;7.53;4.20;;;;;;;;;;5094676;28;20442;-59
2023/06/09 05:48:15;;;;;;;8.50;4.17;;;;;;;;;;5094888;28;20453;-58
2023/06/09 05:50:43;;;;;;;4.63;3.30;;;;;;;;;;5094995;28;20457;-58
2023/06/09 05:53:09;;;;;;;3.40;3.20;;;;;;;;;;5094764;28;20477;-57
2023/06/09 05:55:38;;;;;;;3.73;3.40;;;;;;;;;;5094419;28;20558;-59
2023/06/09 05:58:05;;;;;;;6.03;3.10;;;;;;;;;;5094455;28;20480;-58
2023/06/09 06:00:33;;;;;;;4.07;3.63;;;;;;;;;;5094590;28;20458;-58
2023/06/09 06:03:01;;;;;;;3.40;3.10;;;;;;;;;;5094520;28;20948;-58
2023/06/09 06:05:28;;;;;;;3.60;3.30;;;;;;;;;;5094352;28;20460;-58
2023/06/09 06:07:55;;;;;;;6.00;2.30;;;;;;;;;;5094344;28;20504;-59
2023/06/09 06:10:22;;;;;;;2.63;2.43;;;;;;;;;;5094368;28;20534;-58
2023/06/09 06:12:49;;;;;;;2.47;2.20;;;;;;;;;;5093868;28;20502;-58
2023/06/09 06:15:16;;;;;;;4.27;3.30;;;;;;;;;;5094208;28;20443;-58
2023/06/09 06:17:43;;;;;;;7.87;3.07;;;;;;;;;;5094371;28;20502;-58
2023/06/09 06:20:13;;;;;;;5.40;2.27;;;;;;;;;;5094254;28;20446;-58
2023/06/09 06:22:43;;;;;;;3.30;2.57;;;;;;;;;;5094181;28;20450;-58
2023/06/09 06:25:13;;;;;;;3.70;2.87;;;;;;;;;;5094283;28;20445;-59
2023/06/09 06:27:40;;;;;;;3.70;2.60;;;;;;;;;;5094488;28;20784;-58
2023/06/09 06:30:08;;;;;;;3.90;2.43;;;;;;;;;;5093986;28;20456;-58
2023/06/09 06:32:35;;;;;;;3.60;2.40;;;;;;;;;;5094011;28;20465;-58
2023/06/09 06:35:02;;;;;;;3.23;2.37;;;;;;;;;;5093734;28;20482;-57
2023/06/09 06:37:31;;;;;;;4.03;2.60;;;;;;;;;;5093976;28;20455;-57
2023/06/09 06:39:58;;;;;;;2.50;2.30;;;;;;;;;;5093813;28;20447;-57
2023/06/09 06:42:26;;;;;;;2.53;2.30;;;;;;;;;;5093802;28;20451;-57
2023/06/09 06:44:53;;;;;;;2.97;2.70;;;;;;;;;;5093753;28;20455;-58
2023/06/09 06:47:20;;;;;;;2.20;2.00;;;;;;;;;;5093611;28;20479;-58
2023/06/09 06:49:47;;;;;;;5.23;2.50;;;;;;;;;;5093483;28;20795;-56
2023/06/09 06:52:14;;;;;;;3.40;2.50;;;;;;;;;;5093760;28;20451;-58
2023/06/09 06:54:42;;;;;;;4.00;1.70;;;;;;;;;;5093580;28;20525;-56
2023/06/09 06:57:09;;;;;;;2.90;2.10;;;;;;;;;;5093662;28;20486;-57
2023/06/09 06:59:36;;;;;;;2.20;2.00;;;;;;;;;;5093565;28;20955;-58
2023/06/09 07:02:03;;;;;;;3.80;2.50;;;;;;;;;;5093350;28;20851;-58
2023/06/09 07:04:31;;;;;;;4.77;2.10;;;;;;;;;;5093662;28;20450;-59
2023/06/09 07:06:58;;;;;;;5.13;2.83;;;;;;;;;;5093460;28;20500;-53
2023/06/09 07:09:25;;;;;;;4.60;1.93;;;;;;;;;;5093700;28;20482;-57
2023/06/09 07:11:53;;;;;;;3.87;2.37;;;;;;;;;;5093326;28;20497;-59
2023/06/09 07:14:20;;;;;;;2.97;2.17;;;;;;;;;;5093122;28;20482;-59
2023/06/09 07:16:47;;;;;;;5.80;3.17;;;;;;;;;;5092911;28;21003;-60
2023/06/09 07:19:14;;;;;;;2.97;1.77;;;;;;;;;;5093336;28;20447;-58
2023/06/09 07:21:41;;;;;;;1.77;1.67;;;;;;;;;;5093101;28;20542;-58
2023/06/09 07:24:08;;;;;;;3.50;2.10;;;;;;;;;;5092125;28;20857;-59
2023/06/09 07:26:35;;;;;;;7.37;2.43;;;;;;;;;;5092880;28;20985;-57
2023/06/09 07:29:03;;;;;;;2.93;2.00;;;;;;;;;;5092857;28;20784;-58
2023/06/09 07:31:31;;;;;;;7.10;2.37;;;;;;;;;;5092636;28;20455;-57
2023/06/09 07:33:58;;;;;;;2.47;2.23;;;;;;;;;;5093049;28;20486;-57
2023/06/09 07:36:25;;;;;;;3.10;2.10;;;;;;;;;;5092456;28;20512;-58
2023/06/09 07:38:52;;;;;;;2.73;2.07;;;;;;;;;;5092903;28;20458;-57
2023/06/09 07:41:20;;;;;;;3.40;2.37;;;;;;;;;;5092771;28;20533;-59
2023/06/09 07:43:47;;;;;;;2.73;2.53;;;;;;;;;;5092560;28;20447;-59
2023/06/09 07:46:16;;;;;;;2.50;2.30;;;;;;;;;;5092552;28;21018;-58
2023/06/09 07:48:44;;;;;;;4.47;2.00;;;;;;;;;;5091951;28;20538;-58
2023/06/09 07:51:13;;;;;;;3.30;2.30;;;;;;;;;;5092693;28;20511;-55
2023/06/09 07:53:40;;;;;;;2.57;2.37;;;;;;;;;;5094886;28;20543;-57
2023/06/09 07:56:07;;;;;;;6.53;3.80;;;;;;;;;;5092924;28;20497;-59
2023/06/09 07:58:34;;;;;;;3.33;2.77;;;;;;;;;;5092071;28;20454;-57
2023/06/09 08:01:01;;;;;;;2.90;2.70;;;;;;;;;;5092773;28;20439;-58
2023/06/09 08:03:32;;;;;;;5.03;2.67;;;;;;;;;;5092721;28;20458;-58
2023/06/09 08:06:00;;;;;;;2.53;2.33;;;;;;;;;;5092946;28;20804;-56
2023/06/09 08:08:28;;;;;;;2.73;2.20;;;;;;;;;;5092530;28;20944;-57
2023/06/09 08:10:55;;;;;;;3.97;2.67;;;;;;;;;;5092433;28;20443;-57
2023/06/09 08:13:23;;;;;;;2.67;2.40;;;;;;;;;;5092360;28;20482;-56
2023/06/09 08:15:50;;;;;;;5.00;2.83;;;;;;;;;;5092698;28;20482;-58
2023/06/09 08:18:17;;;;;;;4.47;2.90;;;;;;;;;;5092378;28;20488;-58
2023/06/09 08:20:46;;;;;;;2.90;2.60;;;;;;;;;;5092589;28;20447;-57
2023/06/09 08:23:13;;;;;;;5.23;3.07;;;;;;;;;;5092503;28;20482;-58
2023/06/09 08:25:40;;;;;;;3.90;3.10;;;;;;;;;;5092373;28;20451;-58
2023/06/09 08:28:07;;;;;;;3.23;3.00;;;;;;;;;;5092479;28;20895;-59
2023/06/09 08:30:34;;;;;;;3.20;2.90;;;;;;;;;;5092374;28;20539;-57
2023/06/09 08:33:01;;;;;;;3.50;3.30;;;;;;;;;;5092286;28;20537;-58
2023/06/09 08:35:31;;;;;;;3.80;3.17;;;;;;;;;;5092663;28;20504;-58
2023/06/09 08:38:00;;;;;;;3.27;2.97;;;;;;;;;;5095722;28;20447;-57
2023/06/09 08:40:27;;;;;;;3.70;3.20;;;;;;;;;;5096052;28;20498;-57
2023/06/09 08:42:55;;;;;;;3.10;2.90;;;;;;;;;;5095954;28;20545;-58
2023/06/09 08:45:23;;;;;;;3.40;3.20;;;;;;;;;;5095702;28;20458;-57
2023/06/09 08:47:51;;;;;;;3.30;3.00;;;;;;;;;;5095698;28;20525;-58
2023/06/09 08:50:19;;;;;;;3.40;3.00;;;;;;;;;;5095686;28;20454;-57
2023/06/09 08:52:46;;;;;;;3.67;3.37;;;;;;;;;;5095541;28;20447;-57
2023/06/09 08:55:15;;;;;;;4.90;3.30;;;;;;;;;;5095565;28;20490;-57
2023/06/09 08:57:43;;;;;;;6.83;3.70;;;;;;;;;;5095726;28;20791;-57
2023/06/09 09:00:11;;;;;;;3.40;3.10;;;;;;;;;;5095559;28;20473;-56
2023/06/09 09:02:38;;;;;;;4.50;3.37;;;;;;;;;;5095478;28;20861;-57
2023/06/09 09:05:05;;;;;;;3.17;2.93;;;;;;;;;;5095402;28;20454;-57
2023/06/09 09:07:32;;;;;;;3.00;2.90;;;;;;;;;;5097122;28;20552;-58
2023/06/09 09:09:59;;;;;;;5.60;2.90;;;;;;;;;;5097223;28;20453;-58
2023/06/09 09:12:27;;;;;;;3.60;3.10;;;;;;;;;;5097237;28;20443;-58
2023/06/09 09:14:56;;;;;;;3.17;2.97;;;;;;;;;;5111813;28;20474;-57
2023/06/09 09:17:22;;;;;;;11.20;5.00;;;;;;;;;;5100391;28;20495;-59
2023/06/09 09:19:51;;;;;;;3.63;3.40;;;;;;;;;;5106502;28;20477;-57
2023/06/09 09:22:18;;;;;;;3.27;3.07;;;;;;;;;;5107975;28;20456;-59
2023/06/09 09:24:46;;;;;;;3.73;3.50;;;;;;;;;;5098612;28;20443;-58
2023/06/09 09:27:16;;;;;;;3.67;2.93;;;;;;;;;;5094773;28;20479;-58
2023/06/09 09:29:45;;;;;;;3.30;3.10;;;;;;;;;;5094950;28;20447;-58
2023/06/09 09:32:12;;;;;;;3.30;3.10;;;;;;;;;;5094753;28;20810;-58
2023/06/09 09:34:40;;;;;;;5.00;3.43;;;;;;;;;;5095864;28;20486;-58
2023/06/09 09:37:11;;;;;;;3.50;3.30;;;;;;;;;;5098976;28;20532;-58
2023/06/09 09:39:47;;;;;;;3.03;2.73;;;;;;;;;;5094303;28;20431;-58
2023/06/09 09:42:15;;;;;;;3.47;3.17;;;;;;;;;;5094082;28;21029;-58
2023/06/09 09:44:43;;;;;;;3.17;2.97;;;;;;;;;;5094957;28;20972;-59
2023/06/09 09:47:13;;;;;;;3.50;3.30;;;;;;;;;;5093977;28;20447;-58
2023/06/09 09:49:50;;;;;;;3.10;3.00;;;;;;;;;;5094706;28;20453;-58
2023/06/09 09:52:17;;;;;;;3.20;2.77;;;;;;;;;;5094193;28;20855;-58
2023/06/09 09:54:44;;;;;;;3.50;3.23;;;;;;;;;;5094058;28;20516;-59
2023/06/09 09:57:12;;;;;;;3.93;3.53;;;;;;;;;;5094571;28;20509;-58
2023/06/09 09:59:39;;;;;;;3.30;2.57;;;;;;;;;;5094250;28;20455;-58
2023/06/09 10:02:07;;;;;;;3.47;3.23;;;;;;;;;;5094325;28;20443;-58
2023/06/09 10:04:36;;;;;;;3.43;3.23;;;;;;;;;;5093899;28;20447;-58
2023/06/09 10:07:03;;;;;;;3.13;2.93;;;;;;;;;;5093856;28;20443;-59
2023/06/09 10:09:30;;;;;;;9.40;3.80;;;;;;;;;;5094027;28;20465;-59
2023/06/09 10:11:57;;;;;;;4.80;3.40;;;;;;;;;;5094131;28;20443;-59
2023/06/09 10:14:24;;;;;;;4.80;3.50;;;;;;;;;;5094209;28;20646;-59
2023/06/09 10:16:52;;;;;;;3.40;3.20;;;;;;;;;;5094125;28;20451;-58
2023/06/09 10:19:19;;;;;;;4.20;3.47;;;;;;;;;;5094135;28;20457;-58
2023/06/09 10:21:49;;;;;;;3.70;3.40;;;;;;;;;;5094134;28;20459;-58
2023/06/09 10:24:17;;;;;;;4.77;3.60;;;;;;;;;;5094032;28;20508;-58
2023/06/09 10:26:44;;;;;;;3.53;3.23;;;;;;;;;;5094202;28;20457;-58
2023/06/09 10:29:12;;;;;;;4.53;3.13;;;;;;;;;;5093957;28;20497;-58
2023/06/09 10:31:41;;;;;;;3.63;3.43;;;;;;;;;;5093837;28;20447;-59
2023/06/09 10:34:09;;;;;;;3.70;3.50;;;;;;;;;;5093794;28;20525;-57
2023/06/09 10:36:37;;;;;;;3.87;3.57;;;;;;;;;;5093750;28;20451;-59
2023/06/09 10:39:17;;;;;;;4.20;3.90;;;;;;;;;;5093572;28;20447;-58
2023/06/09 10:41:48;;;;;;;4.03;3.73;;;;;;;;;;5093852;28;20451;-58
2023/06/09 10:44:24;;;;;;;4.03;3.60;;;;;;;;;;5093949;28;20538;-58
2023/06/09 10:46:53;;;;;;;5.63;3.30;;;;;;;;;;5093783;28;20537;-56
2023/06/09 10:49:36;;;;;;;4.50;4.00;;;;;;;;;;5093536;28;20500;-56
2023/06/09 10:52:03;;;;;;;5.33;3.70;;;;;;;;;;5093615;28;20522;-57
2023/06/09 10:54:32;;;;;;;4.53;4.13;;;;;;;;;;5093348;28;20477;-58
2023/06/09 10:57:00;;;;;;;4.73;4.00;;;;;;;;;;5093453;28;20455;-57
2023/06/09 10:59:46;;;;;;;4.20;3.90;;;;;;;;;;5094078;28;20572;-57
2023/06/09 11:02:21;;;;;;;4.60;4.20;;;;;;;;;;5093521;28;20504;-57
2023/06/09 11:04:49;;;;;;;4.07;3.73;;;;;;;;;;5093467;28;20499;-57
2023/06/09 11:07:17;;;;;;;3.80;3.40;;;;;;;;;;5093177;28;20454;-57
2023/06/09 11:10:05;;;;;;;4.97;3.90;;;;;;;;;;5093191;28;20538;-56
2023/06/09 11:12:42;;;;;;;4.03;3.73;;;;;;;;;;5093092;28;20486;-57
2023/06/09 11:15:10;;;;;;;4.90;3.97;;;;;;;;;;5093257;28;20486;-57
2023/06/09 11:17:39;;;;;;;4.30;4.00;;;;;;;;;;5093056;28;20458;-57
2023/06/09 11:20:14;;;;;;;4.33;3.90;;;;;;;;;;5093351;28;20486;-57
2023/06/09 11:22:58;;;;;;;5.93;3.83;;;;;;;;;;5093239;28;20874;-58
2023/06/09 11:25:34;;;;;;;6.90;4.17;;;;;;;;;;5093032;28;20558;-57
2023/06/09 11:28:19;;;;;;;4.30;4.00;;;;;;;;;;5092998;28;20875;-58
2023/06/09 11:31:00;;;;;;;6.23;4.53;;;;;;;;;;5093027;28;20456;-58
2023/06/09 11:33:41;;;;;;;4.40;4.10;;;;;;;;;;5093175;28;20446;-58
2023/06/09 11:36:08;;;;;;;4.30;4.00;;;;;;;;;;5092958;28;20880;-58
2023/06/09 11:38:35;;;;;;;3.90;3.60;;;;;;;;;;5093152;28;20956;-58
2023/06/09 11:41:04;;;;;;;4.03;3.73;;;;;;;;;;5092777;28;20446;-58
2023/06/09 11:43:32;;;;;;;4.00;3.70;;;;;;;;;;5092818;28;20486;-58
2023/06/09 11:46:02;;;;;;;4.73;4.33;;;;;;;;;;5093107;28;20537;-57
2023/06/09 11:48:29;;;;;;;4.50;4.10;;;;;;;;;;5092944;28;20451;-57
2023/06/09 11:50:56;;;;;;;4.40;4.10;;;;;;;;;;5093073;28;20547;-57
2023/06/09 11:53:24;;;;;;;4.10;3.80;;;;;;;;;;5092700;28;20881;-57
2023/06/09 11:55:58;;;;;;;4.90;4.50;;;;;;;;;;5092466;28;20828;-58
2023/06/09 11:58:25;;;;;;;4.30;4.00;;;;;;;;;;5093011;28;20462;-57
2023/06/09 12:00:55;;;;;;;4.63;4.30;;;;;;;;;;5092764;28;20451;-57
2023/06/09 12:03:23;;;;;;;4.20;3.87;;;;;;;;;;5092842;28;20792;-58
2023/06/09 12:05:51;;;;;;;6.23;3.97;;;;;;;;;;5092631;28;20447;-57
2023/06/09 12:08:18;;;;;;;5.40;4.20;;;;;;;;;;5092635;28;21003;-58
2023/06/09 12:10:45;;;;;;;4.53;4.00;;;;;;;;;;5093612;28;20447;-58
2023/06/09 12:13:13;;;;;;;3.93;3.63;;;;;;;;;;5096756;28;20561;-58
2023/06/09 12:15:45;;;;;;;4.33;4.03;;;;;;;;;;5096490;28;20482;-57
2023/06/09 12:18:13;;;;;;;4.40;4.00;;;;;;;;;;5096436;28;20787;-57
2023/06/09 12:20:42;;;;;;;5.93;3.90;;;;;;;;;;5096461;28;20538;-57
2023/06/09 12:23:12;;;;;;;4.73;4.30;;;;;;;;;;5096286;28;20446;-57
2023/06/09 12:25:40;;;;;;;6.13;3.93;;;;;;;;;;5096500;28;20454;-58
2023/06/09 12:28:13;;;;;;;4.70;4.30;;;;;;;;;;5096325;28;20890;-58
2023/06/09 12:30:42;;;;;;;4.40;4.00;;;;;;;;;;5096516;28;20482;-58
2023/06/09 12:33:10;;;;;;;3.60;3.30;;;;;;;;;;5096056;28;20481;-58
2023/06/09 12:35:39;;;;;;;11.33;3.97;;;;;;;;;;5095928;28;20482;-58
2023/06/09 12:38:16;;;;;;;5.07;4.57;;;;;;;;;;5096135;28;20455;-59
2023/06/09 12:40:43;;;;;;;4.90;4.60;;;;;;;;;;5096126;28;20450;-58
2023/06/09 12:43:11;;;;;;;6.17;4.70;;;;;;;;;;5095962;28;20443;-58
2023/06/09 12:45:38;;;;;;;4.47;4.07;;;;;;;;;;5095993;28;20849;-58
2023/06/09 12:48:06;;;;;;;4.77;4.37;;;;;;;;;;5095834;28;20450;-58
2023/06/09 12:50:33;;;;;;;5.60;3.90;;;;;;;;;;5096065;28;20538;-58
2023/06/09 12:53:01;;;;;;;4.80;4.40;;;;;;;;;;5096014;28;20447;-58
2023/06/09 12:55:28;;;;;;;4.67;4.03;;;;;;;;;;5095618;28;20478;-58
2023/06/09 12:57:55;;;;;;;4.60;4.20;;;;;;;;;;5095681;28;20454;-58
2023/06/09 13:00:22;;;;;;;4.73;4.10;;;;;;;;;;5095548;28;20910;-58
2023/06/09 13:02:49;;;;;;;5.53;4.87;;;;;;;;;;5095433;28;20453;-58
2023/06/09 13:05:16;;;;;;;4.03;3.73;;;;;;;;;;5095684;28;20450;-58
2023/06/09 13:07:44;;;;;;;5.30;4.80;;;;;;;;;;5095459;28;20447;-58
2023/06/09 13:10:12;;;;;;;4.53;4.23;;;;;;;;;;5095745;28;20538;-58
2023/06/09 13:12:39;;;;;;;4.90;4.37;;;;;;;;;;5095477;28;20454;-58
2023/06/09 13:15:06;;;;;;;4.47;4.00;;;;;;;;;;5095181;28;20435;-58
2023/06/09 13:17:33;;;;;;;5.40;4.33;;;;;;;;;;5095419;28;20455;-58
2023/06/09 13:20:02;;;;;;;13.33;5.13;;;;;;;;;;5095305;28;20447;-58
2023/06/09 13:22:29;;;;;;;10.53;5.00;;;;;;;;;;5093817;28;20474;-57
2023/06/09 13:24:56;;;;;;;3.93;3.63;;;;;;;;;;5095187;28;20446;-58
2023/06/09 13:27:24;;;;;;;4.37;3.97;;;;;;;;;;5094989;28;20447;-58
2023/06/09 13:29:51;;;;;;;4.17;3.87;;;;;;;;;;5094965;28;20486;-58
2023/06/09 13:32:18;;;;;;;4.00;3.70;;;;;;;;;;5095137;28;20538;-59
2023/06/09 13:34:45;;;;;;;4.70;4.17;;;;;;;;;;5095148;28;20443;-58
2023/06/09 13:37:12;;;;;;;5.40;3.90;;;;;;;;;;5094899;28;20909;-58
2023/06/09 13:39:39;;;;;;;4.23;3.67;;;;;;;;;;5094929;28;20535;-58
2023/06/09 13:42:06;;;;;;;8.00;4.97;;;;;;;;;;5094960;28;20449;-58
2023/06/09 13:44:34;;;;;;;4.10;3.77;;;;;;;;;;5094795;28;20922;-57
2023/06/09 13:47:01;;;;;;;4.33;3.93;;;;;;;;;;5094744;28;20541;-57
2023/06/09 13:49:28;;;;;;;5.27;4.43;;;;;;;;;;5094633;28;20534;-57
2023/06/09 13:51:55;;;;;;;4.30;3.90;;;;;;;;;;5094641;28;20524;-57
2023/06/09 13:54:22;;;;;;;5.90;5.10;;;;;;;;;;5094488;28;20534;-57
2023/06/09 13:56:49;;;;;;;5.60;4.53;;;;;;;;;;5093832;28;20493;-57
2023/06/09 13:59:16;;;;;;;4.20;3.90;;;;;;;;;;5094630;28;20447;-57
2023/06/09 14:01:46;;;;;;;4.87;4.13;;;;;;;;;;5094377;28;20945;-57
2023/06/09 14:04:12;;;;;;;3.73;3.43;;;;;;;;;;5094363;28;20450;-57
2023/06/09 14:06:40;;;;;;;4.73;4.33;;;;;;;;;;5094077;28;20451;-57
2023/06/09 14:09:08;;;;;;;7.50;4.13;;;;;;;;;;5094094;28;20881;-57
2023/06/09 14:11:35;;;;;;;5.13;4.73;;;;;;;;;;5094168;28;20546;-59
2023/06/09 14:14:02;;;;;;;5.60;4.27;;;;;;;;;;5094315;28;20542;-57
2023/06/09 14:16:29;;;;;;;4.97;3.50;;;;;;;;;;5094046;28;20483;-57
2023/06/09 14:18:58;;;;;;;5.60;4.40;;;;;;;;;;5094049;28;20451;-57
2023/06/09 14:21:25;;;;;;;5.27;4.13;;;;;;;;;;5094248;28;20453;-57
2023/06/09 14:23:52;;;;;;;4.30;3.90;;;;;;;;;;5093895;28;20600;-58
2023/06/09 14:26:19;;;;;;;4.20;3.80;;;;;;;;;;5094095;28;20522;-57
2023/06/09 14:28:46;;;;;;;4.03;3.73;;;;;;;;;;5094006;28;20881;-57
2023/06/09 14:31:13;;;;;;;5.10;4.10;;;;;;;;;;5093869;28;20450;-57
2023/06/09 14:33:40;;;;;;;6.07;3.83;;;;;;;;;;5093430;28;20869;-57
2023/06/09 14:36:09;;;;;;;5.37;4.03;;;;;;;;;;5093564;28;20471;-57
2023/06/09 14:38:36;;;;;;;4.27;3.50;;;;;;;;;;5093680;28;20479;-57
2023/06/09 14:41:03;;;;;;;4.23;3.40;;;;;;;;;;5093799;28;20897;-58
2023/06/09 14:43:30;;;;;;;4.53;4.23;;;;;;;;;;5093619;28;20495;-57
2023/06/09 14:45:57;;;;;;;5.33;4.57;;;;;;;;;;5093485;28;20458;-57
2023/06/09 14:48:24;;;;;;;9.40;4.57;;;;;;;;;;5093496;28;20538;-57